Time;durP1;ratioP1;P1;durP2;ratioP2;P2;SDS_P1;SDS_P2;PMS_P1;PMS_P2;Temp;Humidity;BMP_temperature;BMP_pressure;BME280_temperature;BME280_humidity;BME280_pressure;Samples;Min_cycle;Max_cycle;Signal;HPM_P1;HPM_P2
2023/10/05 00:00:39;;;;;;;8.33;6.97;;;12.10;74.50;;;;;;6287624;28;20804;-83
2023/10/05 00:03:45;;;;;;;11.23;7.37;;;12.00;74.70;;;;;;6283813;28;20761;-81
2023/10/05 00:06:53;;;;;;;8.53;7.30;;;12.00;74.50;;;;;;6284901;28;20320;-80
2023/10/05 00:09:57;;;;;;;9.60;7.97;;;12.00;74.60;;;;;;6284584;28;20240;-80
2023/10/05 00:13:05;;;;;;;10.13;7.27;;;12.00;74.60;;;;;;6283459;28;20245;-82
2023/10/05 00:16:12;;;;;;;8.63;7.83;;;12.00;74.50;;;;;;6284020;28;20383;-80
2023/10/05 00:19:20;;;;;;;8.50;6.97;;;11.90;74.80;;;;;;6288553;28;20642;-81
2023/10/05 00:22:23;;;;;;;10.67;7.77;;;11.90;74.80;;;;;;6280792;28;20260;-79
2023/10/05 00:25:28;;;;;;;8.47;7.40;;;11.90;74.90;;;;;;6287559;28;20241;-80
2023/10/05 00:28:33;;;;;;;10.50;7.10;;;11.90;75.00;;;;;;6281007;28;20233;-79
2023/10/05 00:31:39;;;;;;;12.70;7.83;;;11.90;75.10;;;;;;6279598;28;20658;-81
2023/10/05 00:34:44;;;;;;;8.33;7.47;;;11.90;75.00;;;;;;6291817;28;20325;-78
2023/10/05 00:37:49;;;;;;;9.83;7.27;;;11.90;74.80;;;;;;6288229;28;20233;-81
2023/10/05 00:40:56;;;;;;;11.83;7.67;;;11.90;74.80;;;;;;6275011;28;20317;-79
2023/10/05 00:44:00;;;;;;;7.20;6.50;;;11.90;74.80;;;;;;6286122;28;20257;-81
2023/10/05 00:47:06;;;;;;;9.97;7.43;;;11.90;74.90;;;;;;6288300;28;20320;-79
2023/10/05 00:50:11;;;;;;;9.50;8.10;;;11.90;74.90;;;;;;6280404;28;20738;-81
2023/10/05 00:53:17;;;;;;;9.17;7.50;;;11.90;74.90;;;;;;6279595;28;20266;-79
2023/10/05 00:56:22;;;;;;;13.07;7.37;;;11.90;75.00;;;;;;6282194;28;20237;-81
2023/10/05 00:59:26;;;;;;;9.13;6.53;;;11.90;75.00;;;;;;6283964;28;20229;-79
2023/10/05 01:02:32;;;;;;;8.57;7.03;;;11.80;75.10;;;;;;6287564;28;20233;-81
2023/10/05 01:05:47;;;;;;;9.53;6.77;;;11.80;75.00;;;;;;6285711;28;20264;-80
2023/10/05 01:08:59;;;;;;;7.97;6.90;;;11.70;75.10;;;;;;6281989;28;20351;-78
2023/10/05 01:12:15;;;;;;;10.97;7.13;;;11.80;75.10;;;;;;6287938;28;20237;-80
2023/10/05 01:15:21;;;;;;;9.47;7.20;;;11.80;75.10;;;;;;6280508;28;20802;-79
2023/10/05 01:18:30;;;;;;;8.63;7.10;;;11.90;74.90;;;;;;6284169;28;20236;-79
2023/10/05 01:21:34;;;;;;;9.00;7.13;;;11.80;74.90;;;;;;6295819;28;20236;-80
2023/10/05 01:24:38;;;;;;;10.93;6.87;;;11.80;74.80;;;;;;6286092;28;20615;-78
2023/10/05 01:27:44;;;;;;;9.50;6.70;;;11.80;74.90;;;;;;6286208;28;20241;-79
2023/10/05 01:30:52;;;;;;;7.10;6.30;;;11.80;74.80;;;;;;6278839;28;20311;-78
2023/10/05 01:33:58;;;;;;;10.17;6.57;;;11.80;74.90;;;;;;6278428;28;20237;-80
2023/10/05 01:37:03;;;;;;;7.43;6.10;;;11.80;74.70;;;;;;6286375;28;20233;-83
2023/10/05 01:40:13;;;;;;;10.87;6.77;;;11.90;74.60;;;;;;6287493;28;20322;-79
2023/10/05 01:43:17;;;;;;;9.97;6.77;;;11.80;74.60;;;;;;6287489;28;20237;-79
2023/10/05 01:46:23;;;;;;;13.67;7.20;;;11.80;74.70;;;;;;6278427;28;20244;-81
2023/10/05 01:49:27;;;;;;;12.83;6.63;;;11.80;74.70;;;;;;6286344;28;20842;-80
2023/10/05 01:52:30;;;;;;;9.47;5.77;;;11.80;74.60;;;;;;6290976;28;20233;-80
2023/10/05 01:55:35;;;;;;;6.60;6.00;;;11.90;74.50;;;;;;6285785;28;20238;-81
2023/10/05 01:58:42;;;;;;;9.20;6.23;;;11.80;74.60;;;;;;6286344;28;20229;-81
2023/10/05 02:01:46;;;;;;;7.10;6.40;;;11.90;74.60;;;;;;6280559;28;20245;-79
2023/10/05 02:04:50;;;;;;;8.13;6.33;;;11.90;74.40;;;;;;6279427;28;20257;-80
2023/10/05 02:07:53;;;;;;;7.97;6.00;;;11.90;74.30;;;;;;6270955;28;20260;-81
2023/10/05 02:11:02;;;;;;;9.80;6.50;;;11.90;74.20;;;;;;6285998;28;20254;-80
2023/10/05 02:14:06;;;;;;;9.53;6.00;;;11.90;74.50;;;;;;6278619;28;20248;-80
2023/10/05 02:17:10;;;;;;;9.57;6.03;;;11.90;74.30;;;;;;6285050;28;20237;-80
2023/10/05 02:20:37;;;;;;;7.17;6.40;;;11.90;74.20;;;;;;6283169;28;20234;-78
2023/10/05 02:23:41;;;;;;;7.63;6.07;;;11.90;74.30;;;;;;6284317;28;20289;-80
2023/10/05 02:27:09;;;;;;;12.73;6.53;;;11.90;74.20;;;;;;6276995;28;20268;-80
2023/10/05 02:30:14;;;;;;;7.07;6.27;;;11.90;74.00;;;;;;6285592;28;20225;-80
2023/10/05 02:33:20;;;;;;;7.20;6.23;;;11.90;74.10;;;;;;6283399;28;20728;-81
2023/10/05 02:36:30;;;;;;;7.73;5.67;;;11.90;73.90;;;;;;6280879;28;20240;-80
2023/10/05 02:39:36;;;;;;;7.80;5.90;;;11.90;73.90;;;;;;6286343;28;20446;-79
2023/10/05 02:42:43;;;;;;;6.90;5.87;;;11.90;74.20;;;;;;6279931;28;20630;-81
2023/10/05 02:45:46;;;;;;;7.07;5.80;;;11.90;73.90;;;;;;6283122;28;20248;-78
2023/10/05 02:48:49;;;;;;;6.53;5.93;;;11.90;74.00;;;;;;6286452;28;20346;-80
2023/10/05 02:51:53;;;;;;;7.57;6.00;;;11.90;73.90;;;;;;6279147;28;20237;-82
2023/10/05 02:54:57;;;;;;;9.30;6.20;;;11.90;74.00;;;;;;6275412;28;20363;-81
2023/10/05 02:58:01;;;;;;;7.67;5.60;;;11.90;73.90;;;;;;6286665;28;20847;-83
2023/10/05 03:01:11;;;;;;;8.27;6.10;;;11.90;74.10;;;;;;6277072;28;20310;-78
2023/10/05 03:04:21;;;;;;;8.13;6.60;;;11.90;73.80;;;;;;6285270;28;20257;-77
2023/10/05 03:07:26;;;;;;;7.43;5.60;;;11.90;73.80;;;;;;6271056;28;20229;-81
2023/10/05 03:10:29;;;;;;;8.93;6.60;;;12.00;73.70;;;;;;6280682;28;20777;-80
2023/10/05 03:13:34;;;;;;;6.20;5.57;;;12.00;73.70;;;;;;6263584;28;20241;-80
2023/10/05 03:16:44;;;;;;;8.30;6.00;;;12.00;73.60;;;;;;6286143;28;20238;-81
2023/10/05 03:19:47;;;;;;;6.20;5.60;;;12.00;73.60;;;;;;6282468;28;20317;-80
2023/10/05 03:22:54;;;;;;;7.47;6.50;;;12.10;73.20;;;;;;6282167;28;20232;-80
2023/10/05 03:25:57;;;;;;;6.90;6.10;;;12.10;73.40;;;;;;6285243;28;20256;-80
2023/10/05 03:29:02;;;;;;;7.53;5.80;;;12.10;73.40;;;;;;6285358;28;20233;-79
2023/10/05 03:32:13;;;;;;;6.10;5.50;;;12.00;73.20;;;;;;6265800;28;20252;-80
2023/10/05 03:35:22;;;;;;;7.10;6.30;;;12.00;73.30;;;;;;6276460;28;20230;-82
2023/10/05 03:38:28;;;;;;;7.53;6.00;;;12.00;73.30;;;;;;6277695;28;20226;-80
2023/10/05 03:41:31;;;;;;;5.97;5.43;;;12.10;73.30;;;;;;6268749;28;20232;-79
2023/10/05 03:44:37;;;;;;;8.83;5.80;;;12.00;73.30;;;;;;6280042;28;20238;-80
2023/10/05 03:47:40;;;;;;;6.20;5.57;;;12.00;73.40;;;;;;6280150;28;20241;-81
2023/10/05 03:50:43;;;;;;;6.13;5.63;;;12.10;73.00;;;;;;6273728;28;20619;-80
2023/10/05 03:53:51;;;;;;;11.63;6.37;;;12.00;72.90;;;;;;6271381;28;20258;-80
2023/10/05 03:57:04;;;;;;;7.07;5.43;;;12.10;72.90;;;;;;6287532;28;20744;-79
2023/10/05 04:00:31;;;;;;;8.27;5.73;;;12.10;72.90;;;;;;6277362;28;20316;-78
2023/10/05 04:03:35;;;;;;;7.90;6.17;;;12.00;73.00;;;;;;6277054;28;20240;-79
2023/10/05 04:06:41;;;;;;;8.97;6.30;;;12.00;73.00;;;;;;6269503;28;20244;-81
2023/10/05 04:09:44;;;;;;;8.63;5.87;;;12.00;72.70;;;;;;6270974;28;20237;-80
2023/10/05 04:12:51;;;;;;;9.20;6.30;;;12.10;72.80;;;;;;6287710;28;20245;-80
2023/10/05 04:15:56;;;;;;;8.40;5.97;;;12.10;72.70;;;;;;6280131;28;20376;-79
2023/10/05 04:18:59;;;;;;;9.57;6.57;;;12.10;72.60;;;;;;6285110;28;20237;-81
2023/10/05 04:22:05;;;;;;;7.97;6.20;;;12.10;72.50;;;;;;6281601;28;20230;-78
2023/10/05 04:25:08;;;;;;;11.27;6.80;;;12.10;72.50;;;;;;6284421;28;20269;-78
2023/10/05 04:28:12;;;;;;;10.73;5.80;;;12.10;72.50;;;;;;6279695;28;20256;-79
2023/10/05 04:31:21;;;;;;;10.97;6.03;;;12.10;72.50;;;;;;6275527;28;20237;-82
2023/10/05 04:34:30;;;;;;;8.97;6.17;;;12.10;72.80;;;;;;6277049;28;21880;-79
2023/10/05 04:37:34;;;;;;;7.60;5.87;;;12.10;72.50;;;;;;6281499;28;20226;-81
2023/10/05 04:40:38;;;;;;;7.00;5.93;;;12.10;72.70;;;;;;6313305;28;20231;-77
2023/10/05 04:43:43;;;;;;;8.73;6.23;;;12.10;72.60;;;;;;6317301;28;20244;-81
2023/10/05 04:46:48;;;;;;;9.20;6.20;;;12.10;72.60;;;;;;6316532;28;20264;-78
2023/10/05 04:49:52;;;;;;;8.23;6.17;;;12.10;72.50;;;;;;6311758;28;20211;-77
2023/10/05 04:52:58;;;;;;;9.27;5.70;;;12.10;72.60;;;;;;6296428;28;20218;-79
2023/10/05 04:56:12;;;;;;;8.60;6.47;;;12.10;72.70;;;;;;6309458;28;20225;-79
2023/10/05 04:59:48;;;;;;;12.80;6.50;;;12.10;72.60;;;;;;6311065;28;20218;-77
2023/10/05 05:03:05;;;;;;;9.80;6.57;;;12.10;72.60;;;;;;6314202;28;20233;-78
2023/10/05 05:06:11;;;;;;;9.20;6.13;;;12.10;72.70;;;;;;6315300;28;20230;-79
2023/10/05 05:09:15;;;;;;;9.70;5.80;;;12.10;72.70;;;;;;6319620;28;20240;-78
2023/10/05 05:12:29;;;;;;;9.50;6.30;;;12.10;72.70;;;;;;6309818;28;20221;-77
2023/10/05 05:15:38;;;;;;;7.53;5.97;;;12.10;72.80;;;;;;6313901;28;20209;-79
2023/10/05 05:18:49;;;;;;;8.33;5.93;;;12.10;72.80;;;;;;6310402;28;20263;-78
2023/10/05 05:22:08;;;;;;;6.93;6.23;;;12.10;73.00;;;;;;6315253;28;20274;-78
2023/10/05 05:25:13;;;;;;;7.40;5.70;;;12.10;72.80;;;;;;6309572;28;20246;-82
2023/10/05 05:28:17;;;;;;;10.17;5.97;;;12.10;73.00;;;;;;6304998;28;20232;-81
2023/10/05 05:31:23;;;;;;;9.37;5.83;;;12.10;73.00;;;;;;6286199;28;20238;-79
2023/10/05 05:34:28;;;;;;;12.73;6.87;;;12.10;73.10;;;;;;6288211;28;20565;-79
2023/10/05 05:37:31;;;;;;;9.23;6.27;;;12.10;73.10;;;;;;6301622;28;20241;-79
2023/10/05 05:40:36;;;;;;;8.20;6.10;;;12.10;73.10;;;;;;6277981;28;20287;-81
2023/10/05 05:43:40;;;;;;;12.43;5.93;;;12.20;73.00;;;;;;6286815;28;20246;-82
2023/10/05 05:46:44;;;;;;;11.83;6.03;;;12.20;73.00;;;;;;6280082;28;20306;-82
2023/10/05 05:49:50;;;;;;;12.63;8.43;;;12.20;72.80;;;;;;6281889;28;20230;-79
2023/10/05 05:52:56;;;;;;;9.67;6.40;;;12.20;73.00;;;;;;6284596;28;20234;-82
2023/10/05 05:56:01;;;;;;;11.47;7.00;;;12.20;73.00;;;;;;6277593;28;20323;-82
2023/10/05 05:59:04;;;;;;;8.70;6.53;;;12.30;73.00;;;;;;6276377;28;20230;-82
2023/10/05 06:02:10;;;;;;;11.60;7.00;;;12.20;73.00;;;;;;6285321;28;20324;-81
2023/10/05 06:05:16;;;;;;;7.77;6.10;;;12.30;73.00;;;;;;6285939;28;20253;-80
2023/10/05 06:08:19;;;;;;;13.17;6.77;;;12.30;72.80;;;;;;6276322;28;20241;-82
2023/10/05 06:11:22;;;;;;;10.50;6.43;;;12.50;72.60;;;;;;6283963;28;20920;-83
2023/10/05 06:14:27;;;;;;;14.10;6.53;;;12.50;72.60;;;;;;6272957;28;20383;-82
2023/10/05 06:17:30;;;;;;;11.33;6.50;;;12.50;72.60;;;;;;6276836;28;20244;-80
2023/10/05 06:20:38;;;;;;;12.67;6.73;;;12.50;72.50;;;;;;6284862;28;20234;-80
2023/10/05 06:23:41;;;;;;;7.57;6.37;;;12.50;72.50;;;;;;6276999;28;20244;-78
2023/10/05 06:26:45;;;;;;;10.90;7.30;;;12.70;72.30;;;;;;6276412;28;20237;-80
2023/10/05 06:29:49;;;;;;;13.20;6.43;;;12.70;72.20;;;;;;6281605;28;20314;-80
2023/10/05 06:32:53;;;;;;;12.40;7.20;;;12.80;72.10;;;;;;6281848;28;20373;-78
2023/10/05 06:35:58;;;;;;;15.23;7.33;;;12.80;72.10;;;;;;6275914;28;20283;-79
2023/10/05 06:39:01;;;;;;;10.67;6.90;;;12.90;72.10;;;;;;6283949;28;20244;-81
2023/10/05 06:42:04;;;;;;;9.57;6.27;;;12.90;72.10;;;;;;6281551;28;20613;-78
2023/10/05 06:45:11;;;;;;;11.30;6.07;;;13.00;71.80;;;;;;6283806;28;20241;-80
2023/10/05 06:48:15;;;;;;;11.10;6.67;;;13.10;71.70;;;;;;6281762;28;20256;-81
2023/10/05 06:51:29;;;;;;;8.90;6.27;;;13.20;71.30;;;;;;6271198;28;20862;-80
2023/10/05 06:54:32;;;;;;;8.57;6.03;;;13.20;71.20;;;;;;6285064;28;20712;-83
2023/10/05 06:57:36;;;;;;;10.27;6.87;;;13.30;71.50;;;;;;6276556;28;20726;-84
2023/10/05 07:00:39;;;;;;;9.07;6.60;;;13.30;71.20;;;;;;6270951;28;20246;-77
2023/10/05 07:03:43;;;;;;;10.53;6.00;;;13.30;71.30;;;;;;6284104;28;20287;-80
2023/10/05 07:06:50;;;;;;;12.63;6.33;;;13.30;71.20;;;;;;6283092;28;20241;-84
2023/10/05 07:09:53;;;;;;;9.57;6.53;;;13.50;71.00;;;;;;6283465;28;20833;-81
2023/10/05 07:12:56;;;;;;;7.20;6.03;;;13.50;71.00;;;;;;6283681;28;20225;-79
2023/10/05 07:15:59;;;;;;;8.93;6.23;;;13.50;71.20;;;;;;6284995;28;20620;-80
2023/10/05 07:19:03;;;;;;;8.40;5.63;;;13.60;71.00;;;;;;6286428;28;20222;-80
2023/10/05 07:22:09;;;;;;;9.00;6.57;;;13.70;71.10;;;;;;6279676;28;20233;-80
2023/10/05 07:25:14;;;;;;;11.43;6.83;;;13.80;70.50;;;;;;6279728;28;20260;-82
2023/10/05 07:28:18;;;;;;;11.27;6.63;;;13.90;70.50;;;;;;6280393;28;20252;-81
2023/10/05 07:31:22;;;;;;;8.10;5.57;;;13.90;70.60;;;;;;6283006;28;20240;-82
2023/10/05 07:34:26;;;;;;;10.83;6.07;;;13.90;70.50;;;;;;6264769;28;20249;-83
2023/10/05 07:37:31;;;;;;;11.80;6.53;;;13.90;70.40;;;;;;6278617;28;20268;-82
2023/10/05 07:40:36;;;;;;;9.97;5.83;;;13.80;70.70;;;;;;6266949;28;20229;-83
2023/10/05 07:43:40;;;;;;;6.63;6.03;;;13.90;70.30;;;;;;6276554;28;20244;-80
2023/10/05 07:46:48;;;;;;;7.17;5.57;;;13.90;70.30;;;;;;6281347;28;20237;-81
2023/10/05 07:49:53;;;;;;;8.97;5.77;;;14.00;70.30;;;;;;6282482;28;20782;-80
2023/10/05 07:52:58;;;;;;;7.57;5.23;;;14.00;70.30;;;;;;6269493;28;20252;-80
2023/10/05 07:56:02;;;;;;;8.50;5.07;;;14.00;70.10;;;;;;6275093;28;20312;-79
2023/10/05 07:59:06;;;;;;;7.50;5.53;;;14.10;70.10;;;;;;6287899;28;20537;-81
2023/10/05 08:02:11;;;;;;;10.93;5.90;;;14.10;69.90;;;;;;6279517;28;20248;-81
2023/10/05 08:05:15;;;;;;;10.13;6.37;;;14.20;70.10;;;;;;6278490;28;20237;-78
2023/10/05 08:08:21;;;;;;;12.00;5.80;;;14.40;69.70;;;;;;6285945;28;20771;-80
2023/10/05 08:11:24;;;;;;;10.43;6.13;;;14.60;69.10;;;;;;6289934;28;20257;-81
2023/10/05 08:14:28;;;;;;;8.37;5.17;;;14.70;69.20;;;;;;6255773;28;20256;-80
2023/10/05 08:17:31;;;;;;;5.53;4.57;;;14.90;68.30;;;;;;6284212;28;20229;-82
2023/10/05 08:20:36;;;;;;;10.37;5.33;;;14.90;68.10;;;;;;6283212;28;20260;-82
2023/10/05 08:23:41;;;;;;;8.33;5.30;;;14.90;68.20;;;;;;6288837;28;20249;-80
2023/10/05 08:26:44;;;;;;;7.20;5.10;;;14.80;68.20;;;;;;6261776;28;20631;-81
2023/10/05 08:29:48;;;;;;;5.90;5.03;;;14.80;68.40;;;;;;6285871;28;20241;-82
2023/10/05 08:32:51;;;;;;;9.03;5.07;;;15.00;68.10;;;;;;6266517;28;20339;-85
2023/10/05 08:35:54;;;;;;;9.50;5.40;;;14.90;68.00;;;;;;6281452;28;20285;-82
2023/10/05 08:39:00;;;;;;;11.77;5.47;;;14.90;67.90;;;;;;6281784;28;20560;-81
2023/10/05 08:42:06;;;;;;;8.50;5.20;;;14.90;67.90;;;;;;6280757;28;20720;-79
2023/10/05 08:45:12;;;;;;;6.03;5.20;;;14.90;68.10;;;;;;6287307;28;20225;-81
2023/10/05 08:48:22;;;;;;;7.70;5.17;;;15.00;67.70;;;;;;6287438;28;20267;-81
2023/10/05 08:51:27;;;;;;;9.30;5.33;;;15.00;67.70;;;;;;6284529;28;20309;-79
2023/10/05 08:54:33;;;;;;;5.83;4.97;;;15.10;67.70;;;;;;6280616;28;20303;-79
2023/10/05 08:57:36;;;;;;;8.63;5.20;;;15.30;67.00;;;;;;6281300;28;20233;-80
2023/10/05 09:00:40;;;;;;;6.33;5.20;;;15.20;67.40;;;;;;6280775;28;20281;-80
2023/10/05 09:03:43;;;;;;;10.10;5.37;;;15.20;66.90;;;;;;6276625;28;20248;-80
2023/10/05 09:06:48;;;;;;;8.43;5.30;;;15.20;67.20;;;;;;6286841;28;20943;-81
2023/10/05 09:09:54;;;;;;;6.03;5.00;;;15.30;67.10;;;;;;6284714;28;20245;-81
2023/10/05 09:12:58;;;;;;;6.80;5.37;;;15.80;66.30;;;;;;6269816;28;20244;-82
2023/10/05 09:16:06;;;;;;;9.60;5.17;;;16.00;65.60;;;;;;6285608;28;20245;-81
2023/10/05 09:19:12;;;;;;;5.27;4.73;;;16.30;64.80;;;;;;6276735;28;20321;-83
2023/10/05 09:22:17;;;;;;;8.73;5.10;;;16.30;64.50;;;;;;6289668;28;20237;-83
2023/10/05 09:25:27;;;;;;;9.23;5.00;;;16.00;65.00;;;;;;6282879;28;20234;-81
2023/10/05 09:28:45;;;;;;;10.17;5.17;;;16.00;65.40;;;;;;6273052;28;20981;-81
2023/10/05 09:31:53;;;;;;;11.83;4.97;;;16.00;65.40;;;;;;6277078;28;20238;-79
2023/10/05 09:34:57;;;;;;;6.93;5.13;;;16.00;65.40;;;;;;6282252;28;20244;-79
2023/10/05 09:38:00;;;;;;;9.00;5.43;;;16.00;65.40;;;;;;6276472;28;20240;-80
2023/10/05 09:41:08;;;;;;;10.27;5.53;;;16.00;65.60;;;;;;6282599;28;20236;-81
2023/10/05 09:44:15;;;;;;;7.90;5.30;;;16.00;65.70;;;;;;6280901;28;20233;-81
2023/10/05 09:47:22;;;;;;;8.37;5.10;;;15.90;65.90;;;;;;6270786;28;20760;-81
2023/10/05 09:50:27;;;;;;;7.33;4.93;;;16.00;65.70;;;;;;6273020;28;20244;-78
2023/10/05 09:53:33;;;;;;;5.70;4.93;;;16.00;65.40;;;;;;6279820;28;20253;-81
2023/10/05 09:56:41;;;;;;;8.80;5.10;;;16.10;65.50;;;;;;6281351;28;20225;-82
2023/10/05 09:59:57;;;;;;;8.70;4.97;;;16.10;65.50;;;;;;6270792;28;20241;-83
2023/10/05 10:03:03;;;;;;;7.87;4.90;;;16.00;65.50;;;;;;6281040;28;20233;-82
2023/10/05 10:06:09;;;;;;;8.07;4.90;;;16.00;65.50;;;;;;6273564;28;20381;-82
2023/10/05 10:09:13;;;;;;;5.43;4.50;;;16.00;65.40;;;;;;6276012;28;20743;-78
2023/10/05 10:12:28;;;;;;;11.80;5.53;;;16.10;64.90;;;;;;6264015;28;21622;-81
2023/10/05 10:15:33;;;;;;;7.10;5.10;;;16.00;65.40;;;;;;6269607;28;20231;-79
2023/10/05 10:18:38;;;;;;;5.57;4.93;;;16.00;65.90;;;;;;6281546;28;20229;-79
2023/10/05 10:21:46;;;;;;;13.30;5.90;;;16.00;65.60;;;;;;6286664;28;20755;-79
2023/10/05 10:24:52;;;;;;;8.23;5.10;;;15.90;66.20;;;;;;6278307;28;20314;-78
2023/10/05 10:28:16;;;;;;;7.37;5.03;;;15.90;66.10;;;;;;6267355;28;20261;-78
2023/10/05 10:31:25;;;;;;;6.40;4.90;;;16.00;66.10;;;;;;6276328;28;21077;-80
2023/10/05 10:34:49;;;;;;;7.40;5.20;;;16.00;66.90;;;;;;6280496;28;20240;-80
2023/10/05 10:37:54;;;;;;;7.07;4.90;;;15.80;68.00;;;;;;6275315;28;20255;-81
2023/10/05 10:41:07;;;;;;;7.83;4.97;;;15.60;68.60;;;;;;6281465;28;20230;-78
2023/10/05 10:44:23;;;;;;;7.27;5.90;;;15.50;69.70;;;;;;6268078;28;20230;-77
2023/10/05 10:47:27;;;;;;;5.30;4.80;;;15.40;70.40;;;;;;6279213;28;20430;-78
2023/10/05 10:50:31;;;;;;;9.47;5.60;;;15.10;71.00;;;;;;6279167;28;20241;-78
2023/10/05 10:53:37;;;;;;;9.13;5.77;;;15.00;71.60;;;;;;6281163;28;20248;-78
2023/10/05 10:56:43;;;;;;;8.97;6.17;;;15.00;71.60;;;;;;6283733;28;20324;-79
2023/10/05 10:59:56;;;;;;;6.83;5.00;;;15.00;71.50;;;;;;6265544;28;20244;-79
2023/10/05 11:03:09;;;;;;;5.70;5.20;;;15.00;71.40;;;;;;6279513;28;20757;-78
2023/10/05 11:06:15;;;;;;;8.90;5.17;;;15.00;71.60;;;;;;6278287;28;20241;-82
2023/10/05 11:09:29;;;;;;;7.90;5.23;;;15.00;71.20;;;;;;6281582;28;20245;-79
2023/10/05 11:12:42;;;;;;;9.60;4.80;;;15.00;71.10;;;;;;6284877;28;20845;-79
2023/10/05 11:15:59;;;;;;;9.67;5.07;;;15.00;70.60;;;;;;6278963;28;20234;-80
2023/10/05 11:19:12;;;;;;;7.17;4.90;;;15.00;70.10;;;;;;6258513;28;20233;-80
2023/10/05 11:22:37;;;;;;;8.07;5.07;;;15.10;69.60;;;;;;6271800;28;20320;-80
2023/10/05 11:25:44;;;;;;;6.27;4.60;;;15.10;70.10;;;;;;6287698;28;20253;-80
2023/10/05 11:28:58;;;;;;;5.77;5.10;;;15.20;70.00;;;;;;6275778;28;20242;-78
2023/10/05 11:32:12;;;;;;;6.10;4.37;;;15.30;69.30;;;;;;6285391;28;20249;-80
2023/10/05 11:35:42;;;;;;;7.13;5.13;;;15.60;69.10;;;;;;6288622;28;20241;-80
2023/10/05 11:38:48;;;;;;;6.23;4.63;;;15.70;68.60;;;;;;6275697;28;20530;-78
2023/10/05 11:41:55;;;;;;;5.33;4.83;;;15.80;68.30;;;;;;6279364;28;20314;-77
2023/10/05 11:44:59;;;;;;;5.23;4.27;;;15.80;68.40;;;;;;6289003;28;20245;-77
2023/10/05 11:48:13;;;;;;;5.80;5.20;;;15.80;68.70;;;;;;6286716;28;20242;-78
2023/10/05 11:51:20;;;;;;;5.17;4.70;;;15.60;69.90;;;;;;6290913;28;20237;-78
2023/10/05 11:54:25;;;;;;;6.60;4.97;;;15.30;72.30;;;;;;6279294;28;20835;-80
2023/10/05 11:57:29;;;;;;;5.70;5.30;;;14.90;74.10;;;;;;6286654;28;20304;-79
2023/10/05 12:00:35;;;;;;;6.40;5.80;;;14.80;75.30;;;;;;6303429;28;20232;-81
2023/10/05 12:03:44;;;;;;;6.77;5.70;;;14.80;75.70;;;;;;6301347;28;20237;-82
2023/10/05 12:06:54;;;;;;;7.27;6.00;;;14.90;76.10;;;;;;6299994;28;20295;-79
2023/10/05 12:09:57;;;;;;;8.97;6.03;;;14.60;76.50;;;;;;6287955;28;20297;-81
2023/10/05 12:13:02;;;;;;;11.50;5.90;;;14.80;76.50;;;;;;6293384;28;20233;-81
2023/10/05 12:16:11;;;;;;;7.57;5.80;;;14.80;76.50;;;;;;6291813;28;20234;-81
2023/10/05 12:19:21;;;;;;;5.63;5.13;;;14.90;76.40;;;;;;6286943;28;20256;-81
2023/10/05 12:22:32;;;;;;;10.57;5.67;;;15.00;75.90;;;;;;6285976;28;20257;-81
2023/10/05 12:25:36;;;;;;;9.57;6.13;;;15.20;75.20;;;;;;6291329;28;20282;-80
2023/10/05 12:28:41;;;;;;;10.27;5.70;;;15.00;74.30;;;;;;6288571;28;20229;-80
2023/10/05 12:31:45;;;;;;;9.50;5.67;;;15.10;74.90;;;;;;6288681;28;20623;-80
2023/10/05 12:34:51;;;;;;;6.37;5.50;;;15.00;74.30;;;;;;6290871;28;20245;-82
2023/10/05 12:37:58;;;;;;;7.33;5.17;;;15.00;73.90;;;;;;6284755;28;20225;-80
2023/10/05 12:41:12;;;;;;;10.37;5.90;;;15.00;73.30;;;;;;6285477;28;20236;-81
2023/10/05 12:44:16;;;;;;;6.23;5.60;;;15.00;73.30;;;;;;6293351;28;20234;-79
2023/10/05 12:47:20;;;;;;;8.67;4.90;;;15.00;72.90;;;;;;6290679;28;20244;-80
2023/10/05 12:50:26;;;;;;;8.67;5.50;;;15.00;73.00;;;;;;6289796;28;20757;-78
2023/10/05 12:53:30;;;;;;;5.57;5.07;;;15.00;73.10;;;;;;6284171;28;20267;-80
2023/10/05 12:56:34;;;;;;;8.70;6.40;;;15.00;72.80;;;;;;6286470;28;20233;-79
2023/10/05 12:59:37;;;;;;;7.70;6.60;;;15.00;74.20;;;;;;6275741;28;20244;-82
2023/10/05 13:02:40;;;;;;;8.10;6.20;;;14.90;74.90;;;;;;6284388;28;20443;-81
2023/10/05 13:05:46;;;;;;;8.07;6.60;;;14.80;75.20;;;;;;6283252;28;20234;-82
2023/10/05 13:08:50;;;;;;;7.33;6.30;;;14.80;75.50;;;;;;6271888;28;20242;-81
2023/10/05 13:11:54;;;;;;;6.67;6.10;;;14.70;75.70;;;;;;6286647;28;20237;-81
2023/10/05 13:14:57;;;;;;;4.50;4.20;;;14.70;76.00;;;;;;6284692;28;20245;-81
2023/10/05 13:18:15;;;;;;;3.87;3.50;;;14.50;77.00;;;;;;6285648;28;20238;-79
2023/10/05 13:21:22;;;;;;;2.37;2.27;;;14.30;77.30;;;;;;6287483;28;20229;-80
2023/10/05 13:24:26;;;;;;;2.03;1.90;;;13.90;77.50;;;;;;6275189;28;20780;-77
2023/10/05 13:27:35;;;;;;;2.57;2.47;;;13.70;78.00;;;;;;6279786;28;20283;-78
2023/10/05 13:30:42;;;;;;;2.97;2.30;;;13.50;78.20;;;;;;6271165;28;20343;-80
2023/10/05 13:33:47;;;;;;;2.40;2.30;;;13.30;78.50;;;;;;6281715;28;20253;-79
2023/10/05 13:36:52;;;;;;;5.60;5.17;;;13.30;79.00;;;;;;6275243;28;20263;-81
2023/10/05 13:39:59;;;;;;;2.27;2.10;;;13.20;78.90;;;;;;6276212;28;20658;-83
2023/10/05 13:43:05;;;;;;;3.17;2.20;;;13.10;79.50;;;;;;6290491;28;20237;-81
2023/10/05 13:46:12;;;;;;;2.30;2.20;;;13.00;80.20;;;;;;6287530;28;20322;-77
2023/10/05 13:49:17;;;;;;;2.30;2.20;;;12.90;80.60;;;;;;6279302;28;20233;-78
2023/10/05 13:52:23;;;;;;;2.30;2.20;;;13.00;81.10;;;;;;6282785;28;20312;-79
2023/10/05 13:55:26;;;;;;;3.07;2.30;;;13.00;81.40;;;;;;6266061;28;20245;-82
2023/10/05 13:58:31;;;;;;;2.30;2.20;;;13.10;81.00;;;;;;6285977;28;20228;-82
2023/10/05 14:01:38;;;;;;;2.13;2.13;;;13.20;80.50;;;;;;6285316;28;20236;-81
2023/10/05 14:04:43;;;;;;;2.47;2.40;;;13.10;80.20;;;;;;6281411;28;20569;-79
2023/10/05 14:07:51;;;;;;;2.80;2.67;;;13.10;80.30;;;;;;6277708;28;20262;-79
2023/10/05 14:10:55;;;;;;;5.80;5.30;;;13.20;80.20;;;;;;6282867;28;20237;-81
2023/10/05 14:13:58;;;;;;;2.77;2.20;;;13.30;80.30;;;;;;6272029;28;20322;-80
2023/10/05 14:17:06;;;;;;;2.20;2.10;;;13.50;79.50;;;;;;6275526;28;20329;-79
2023/10/05 14:20:11;;;;;;;2.53;2.40;;;13.50;78.50;;;;;;6268091;28;20238;-80
2023/10/05 14:23:18;;;;;;;2.50;2.20;;;13.60;79.00;;;;;;6269339;28;20241;-79
2023/10/05 14:26:21;;;;;;;2.40;2.30;;;13.90;78.30;;;;;;6284443;28;20592;-79
2023/10/05 14:29:34;;;;;;;2.47;2.33;;;14.00;78.30;;;;;;6285216;28;20237;-79
2023/10/05 14:32:38;;;;;;;2.50;2.40;;;14.20;77.50;;;;;;6274993;28;20241;-80
2023/10/05 14:35:41;;;;;;;2.70;2.50;;;14.30;76.50;;;;;;6279755;28;20248;-79
2023/10/05 14:38:46;;;;;;;2.80;2.70;;;14.20;76.30;;;;;;6282105;28;20237;-79
2023/10/05 14:41:51;;;;;;;3.07;2.50;;;14.10;76.00;;;;;;6283465;28;20311;-79
2023/10/05 14:44:56;;;;;;;2.47;2.37;;;14.00;76.20;;;;;;6263956;28;20245;-79
2023/10/05 14:48:04;;;;;;;2.43;2.37;;;13.90;76.70;;;;;;6277069;28;20608;-80
2023/10/05 14:51:15;;;;;;;3.13;3.03;;;13.90;77.20;;;;;;6283164;28;20244;-76
2023/10/05 14:54:21;;;;;;;2.73;2.63;;;13.70;76.90;;;;;;6277816;28;20244;-81
2023/10/05 14:57:29;;;;;;;2.73;2.63;;;13.50;77.00;;;;;;6277254;28;20234;-80
2023/10/05 15:00:33;;;;;;;2.67;2.50;;;13.60;77.60;;;;;;6275922;28;20590;-80
2023/10/05 15:03:36;;;;;;;2.17;2.07;;;13.60;77.80;;;;;;6280720;28;20485;-80
2023/10/05 15:06:39;;;;;;;2.00;2.00;;;13.60;78.00;;;;;;6282361;28;20268;-80
2023/10/05 15:09:44;;;;;;;2.77;2.53;;;13.50;77.90;;;;;;6275407;28;20716;-80
2023/10/05 15:12:47;;;;;;;2.70;2.40;;;13.50;77.70;;;;;;6273735;28;20245;-81
2023/10/05 15:15:52;;;;;;;2.40;2.20;;;13.50;77.80;;;;;;6280271;28;20238;-80
2023/10/05 15:18:56;;;;;;;2.03;2.03;;;13.40;78.20;;;;;;6269085;28;20225;-80
2023/10/05 15:21:59;;;;;;;3.33;3.10;;;13.30;78.00;;;;;;6268742;28;20500;-79
2023/10/05 15:25:08;;;;;;;2.17;2.07;;;13.10;78.60;;;;;;6271201;28;20891;-80
2023/10/05 15:28:13;;;;;;;2.40;2.40;;;13.10;78.90;;;;;;6279267;28;20237;-80
2023/10/05 15:31:18;;;;;;;2.33;2.13;;;13.10;78.80;;;;;;6279512;28;20246;-78
2023/10/05 15:34:21;;;;;;;2.43;2.23;;;13.10;79.00;;;;;;6271036;28;20291;-80
2023/10/05 15:37:24;;;;;;;2.53;2.33;;;13.10;79.20;;;;;;6281582;28;20241;-80
2023/10/05 15:40:31;;;;;;;2.90;2.80;;;13.10;79.30;;;;;;6279367;28;20240;-79
2023/10/05 15:43:36;;;;;;;2.50;2.40;;;13.10;78.90;;;;;;6272783;28;20233;-80
2023/10/05 15:46:40;;;;;;;2.90;2.70;;;13.10;78.70;;;;;;6274376;28;20245;-81
2023/10/05 15:49:45;;;;;;;2.83;2.50;;;13.00;79.30;;;;;;6283141;28;20242;-80
2023/10/05 15:52:51;;;;;;;2.70;2.53;;;13.00;79.30;;;;;;6282674;28;20318;-81
2023/10/05 15:56:08;;;;;;;2.63;2.47;;;12.90;79.40;;;;;;6275600;28;20230;-80
2023/10/05 15:59:18;;;;;;;3.10;2.80;;;12.80;79.70;;;;;;6276333;28;20241;-80
2023/10/05 16:02:22;;;;;;;3.17;3.03;;;12.80;80.00;;;;;;6279905;28;20233;-82
2023/10/05 16:05:26;;;;;;;3.10;2.90;;;12.70;80.10;;;;;;6275731;28;20303;-79
2023/10/05 16:08:31;;;;;;;3.20;3.00;;;12.60;80.40;;;;;;6283272;28;20767;-80